Time;durP1;ratioP1;P1;durP2;ratioP2;P2;SDS_P1;SDS_P2;PMS_P1;PMS_P2;Temp;Humidity;BMP_temperature;BMP_pressure;BME280_temperature;BME280_humidity;BME280_pressure;Samples;Min_cycle;Max_cycle;Signal;HPM_P1;HPM_P2
2021/10/08 00:02:15;;;;;;;7.50;4.90;;;;;;;11.43;77.25;101536.41;4834139;29;20447;-76
2021/10/08 00:04:41;;;;;;;8.70;4.90;;;;;;;11.45;77.16;101534.34;4835228;29;20466;-76
2021/10/08 00:07:06;;;;;;;5.80;4.67;;;;;;;11.45;76.70;101540.59;4833908;29;20518;-76
2021/10/08 00:09:32;;;;;;;7.07;4.80;;;;;;;11.45;76.70;101539.75;4830900;29;20435;-76
2021/10/08 00:11:57;;;;;;;5.85;4.60;;;;;;;11.44;77.00;101544.34;4834088;29;20479;-77
2021/10/08 00:14:25;;;;;;;5.53;5.07;;;;;;;11.41;76.92;101538.53;4832335;29;20415;-76
2021/10/08 00:16:50;;;;;;;5.25;4.40;;;;;;;11.40;76.61;101539.59;4839543;29;20411;-76
2021/10/08 00:19:16;;;;;;;4.70;4.30;;;;;;;11.40;76.88;101539.59;4837772;29;20462;-76
2021/10/08 00:21:41;;;;;;;5.77;4.30;;;;;;;11.39;76.83;101540.66;4840421;29;20434;-76
2021/10/08 00:24:06;;;;;;;4.40;4.03;;;;;;;11.37;76.98;101540.03;4835807;29;20804;-76
2021/10/08 00:26:32;;;;;;;4.10;3.80;;;;;;;11.36;77.07;101538.41;4849917;29;20428;-76
2021/10/08 00:28:57;;;;;;;4.70;4.17;;;;;;;11.34;77.15;101530.47;4839192;29;20540;-77
2021/10/08 00:31:22;;;;;;;4.30;3.90;;;;;;;11.35;77.18;101536.72;4853353;29;20439;-76
2021/10/08 00:33:47;;;;;;;4.30;3.80;;;;;;;11.34;76.99;101537.78;4838050;29;20435;-76
2021/10/08 00:36:13;;;;;;;4.83;4.20;;;;;;;11.34;77.16;101529.63;4840492;29;20991;-77
2021/10/08 00:38:40;;;;;;;8.37;4.30;;;;;;;11.31;77.24;101530.91;4835577;29;20439;-77
2021/10/08 00:41:06;;;;;;;4.57;3.70;;;;;;;11.30;77.20;101536.56;4854363;29;20955;-77
2021/10/08 00:43:33;;;;;;;4.30;3.90;;;;;;;11.29;77.30;101532.19;4838075;29;20440;-77
2021/10/08 00:45:58;;;;;;;5.23;4.27;;;;;;;11.29;77.21;101530.31;4839161;29;20404;-76
2021/10/08 00:48:23;;;;;;;4.03;3.70;;;;;;;11.26;77.40;101527.22;4838922;29;20435;-76
2021/10/08 00:50:51;;;;;;;4.37;4.00;;;;;;;11.25;77.60;101529.09;4840535;29;20784;-76
2021/10/08 00:53:17;;;;;;;4.00;3.70;;;;;;;11.21;77.59;101527.88;4834265;29;20480;-76
2021/10/08 00:55:45;;;;;;;6.70;3.85;;;;;;;11.17;77.69;101523.94;4839242;29;20827;-77
2021/10/08 00:58:13;;;;;;;4.60;4.20;;;;;;;11.18;77.84;101528.31;4838948;29;20900;-76
2021/10/08 01:00:43;;;;;;;5.75;3.75;;;;;;;11.20;77.62;101525.38;4839399;29;20556;-76
2021/10/08 01:03:10;;;;;;;3.90;3.70;;;;;;;11.19;77.46;101521.03;4839011;29;20439;-77
2021/10/08 01:05:36;;;;;;;5.72;4.45;;;;;;;11.19;77.53;101524.56;4840319;29;20761;-77
2021/10/08 01:08:02;;;;;;;4.60;4.13;;;;;;;11.20;77.69;101518.06;4837744;29;20479;-76
2021/10/08 01:10:28;;;;;;;4.97;4.05;;;;;;;11.17;77.50;101518.53;4840399;29;20444;-76
2021/10/08 01:12:53;;;;;;;4.80;3.70;;;;;;;11.13;77.70;101519.22;4837904;29;20436;-76
2021/10/08 01:15:18;;;;;;;4.33;3.83;;;;;;;11.12;77.73;101523.81;4841534;29;20507;-77
2021/10/08 01:17:44;;;;;;;4.30;3.87;;;;;;;11.08;77.91;101519.03;4837813;29;20424;-76
2021/10/08 01:20:11;;;;;;;4.53;4.20;;;;;;;11.07;77.90;101525.50;4838667;29;20868;-76
2021/10/08 01:22:37;;;;;;;4.50;4.20;;;;;;;11.02;77.89;101515.34;4840353;29;20429;-76
2021/10/08 01:25:03;;;;;;;3.85;3.60;;;;;;;11.00;78.07;101527.47;4843380;29;20404;-76
2021/10/08 01:27:29;;;;;;;9.82;4.18;;;;;;;10.98;78.03;101524.13;4841040;29;20451;-76
2021/10/08 01:29:56;;;;;;;4.83;3.93;;;;;;;10.93;78.24;101514.75;4843286;29;20459;-76
2021/10/08 01:32:23;;;;;;;5.28;4.35;;;;;;;10.93;77.95;101511.25;4840869;29;20444;-77
2021/10/08 01:34:49;;;;;;;7.22;4.65;;;;;;;10.93;78.15;101503.91;4836204;29;20515;-76
2021/10/08 01:37:16;;;;;;;4.80;4.50;;;;;;;10.91;78.09;101508.75;4839831;29;20427;-76
2021/10/08 01:39:41;;;;;;;4.15;3.88;;;;;;;10.93;78.27;101512.03;4840734;29;20459;-76
2021/10/08 01:42:07;;;;;;;4.68;4.25;;;;;;;10.91;78.22;101505.19;4840849;29;20834;-76
2021/10/08 01:44:32;;;;;;;4.63;4.23;;;;;;;10.90;78.03;101506.22;4841991;29;20427;-76
2021/10/08 01:46:58;;;;;;;9.18;5.20;;;;;;;10.82;78.33;101510.06;4861025;29;20406;-76
2021/10/08 01:49:23;;;;;;;4.37;3.97;;;;;;;10.81;78.63;101510.28;4844337;29;20906;-76
2021/10/08 01:51:48;;;;;;;4.93;4.50;;;;;;;10.80;78.34;101514.06;4844370;29;20494;-76
2021/10/08 01:54:13;;;;;;;5.87;4.83;;;;;;;10.83;78.25;101510.91;4860427;29;20437;-76
2021/10/08 01:56:44;;;;;;;5.47;4.93;;;;;;;10.83;78.01;101511.72;4844672;29;20410;-77
2021/10/08 01:59:09;;;;;;;6.23;4.70;;;;;;;10.80;77.97;101506.72;4855790;29;20902;-77
2021/10/08 02:01:34;;;;;;;7.97;4.70;;;;;;;10.75;77.86;101514.72;4856967;29;20426;-76
2021/10/08 02:04:00;;;;;;;4.97;4.57;;;;;;;10.73;78.05;101505.97;4860239;29;20510;-76
2021/10/08 02:06:25;;;;;;;4.57;3.90;;;;;;;10.71;78.09;101508.06;4861007;29;20414;-76
2021/10/08 02:08:50;;;;;;;4.40;4.10;;;;;;;10.65;77.96;101514.38;4860203;29;20425;-76
2021/10/08 02:11:16;;;;;;;6.30;4.20;;;;;;;10.65;78.44;101502.69;4860639;29;20414;-76
2021/10/08 02:13:41;;;;;;;5.25;3.95;;;;;;;10.66;78.24;101510.63;4857213;29;20517;-76
2021/10/08 02:16:08;;;;;;;6.77;4.20;;;;;;;10.69;78.18;101502.03;4843104;29;20454;-77
2021/10/08 02:18:33;;;;;;;4.78;4.38;;;;;;;10.72;78.15;101503.47;4857662;29;20429;-76
2021/10/08 02:20:58;;;;;;;5.47;4.15;;;;;;;10.75;77.81;101506.59;4842927;29;20787;-76
2021/10/08 02:23:24;;;;;;;4.50;4.07;;;;;;;10.78;78.11;101500.72;4859738;29;20445;-77
2021/10/08 02:25:49;;;;;;;4.80;4.40;;;;;;;10.80;78.10;101495.09;4860181;29;20783;-76
2021/10/08 02:28:14;;;;;;;7.33;4.47;;;;;;;10.83;78.00;101500.88;4840956;29;20516;-76
2021/10/08 02:30:40;;;;;;;6.00;4.60;;;;;;;10.82;77.89;101496.50;4853388;29;20418;-76
2021/10/08 02:33:06;;;;;;;4.43;4.03;;;;;;;10.85;77.76;101496.06;4840037;29;20428;-76
2021/10/08 02:35:31;;;;;;;6.93;4.20;;;;;;;10.87;77.74;101493.13;4858758;29;20410;-76
2021/10/08 02:37:56;;;;;;;4.53;4.13;;;;;;;10.88;77.85;101490.19;4853897;29;20427;-76
2021/10/08 02:40:22;;;;;;;5.50;4.30;;;;;;;10.88;77.70;101492.09;4851260;29;20790;-76
2021/10/08 02:42:47;;;;;;;6.37;4.67;;;;;;;10.88;77.68;101489.38;4859278;29;20493;-76
2021/10/08 02:45:12;;;;;;;10.33;5.20;;;;;;;10.88;77.71;101494.78;4842111;29;20434;-76
2021/10/08 02:47:38;;;;;;;4.90;4.40;;;;;;;10.84;77.92;101491.69;4859546;29;20433;-76
2021/10/08 02:50:04;;;;;;;5.60;5.03;;;;;;;10.84;78.05;101488.97;4858955;29;20437;-76
2021/10/08 02:52:29;;;;;;;5.30;4.90;;;;;;;10.83;78.06;101500.88;4858975;29;21147;-76
2021/10/08 02:54:55;;;;;;;5.15;4.65;;;;;;;10.88;77.95;101508.34;4860522;29;20409;-77
2021/10/08 02:57:20;;;;;;;8.27;5.40;;;;;;;10.84;77.86;101505.25;4841108;29;20947;-76
2021/10/08 02:59:45;;;;;;;7.53;5.07;;;;;;;10.85;78.01;101500.66;4858289;29;20426;-77
2021/10/08 03:02:10;;;;;;;5.70;5.20;;;;;;;10.84;78.22;101507.13;4857437;29;20426;-76
2021/10/08 03:04:36;;;;;;;5.80;5.30;;;;;;;10.82;78.33;101517.38;4852881;29;20511;-76
2021/10/08 03:07:01;;;;;;;7.40;5.57;;;;;;;10.78;78.34;101508.00;4854075;29;20439;-76
2021/10/08 03:09:27;;;;;;;9.10;5.30;;;;;;;10.67;78.83;101501.41;4851108;29;20437;-76
2021/10/08 03:11:52;;;;;;;6.60;5.53;;;;;;;10.66;78.92;101509.78;4851440;29;20430;-77
2021/10/08 03:14:17;;;;;;;9.75;5.95;;;;;;;10.66;79.11;101499.78;4836973;29;20473;-76
2021/10/08 03:16:42;;;;;;;7.00;5.83;;;;;;;10.62;79.23;101505.84;4847631;29;20516;-76
2021/10/08 03:19:08;;;;;;;6.50;5.82;;;;;;;10.62;79.16;101506.69;4848174;29;20509;-76
2021/10/08 03:21:33;;;;;;;9.70;5.80;;;;;;;10.61;79.14;101512.31;4859362;29;20766;-77
2021/10/08 03:23:58;;;;;;;6.90;5.88;;;;;;;10.59;78.90;101509.00;4837960;29;21060;-76
2021/10/08 03:26:25;;;;;;;6.50;5.53;;;;;;;10.58;79.12;101505.44;4857919;29;20422;-76
2021/10/08 03:28:50;;;;;;;7.65;6.13;;;;;;;10.57;78.99;101511.09;4841192;29;20437;-76
2021/10/08 03:31:15;;;;;;;8.00;5.53;;;;;;;10.53;79.29;101510.72;4858766;29;20422;-76
2021/10/08 03:33:41;;;;;;;8.65;5.85;;;;;;;10.51;79.34;101520.09;4840997;29;20425;-76
2021/10/08 03:36:10;;;;;;;6.47;5.88;;;;;;;10.48;79.17;101507.81;4855578;29;20836;-76
2021/10/08 03:38:36;;;;;;;6.80;5.20;;;;;;;10.51;79.20;101509.25;4852047;29;20437;-76
2021/10/08 03:41:09;;;;;;;7.20;5.83;;;;;;;10.51;79.00;101514.66;4858766;29;20488;-76
2021/10/08 03:43:35;;;;;;;6.55;5.82;;;;;;;10.47;79.14;101513.47;4855185;29;20484;-77
2021/10/08 03:46:05;;;;;;;6.85;6.15;;;;;;;10.49;78.99;101519.50;4840365;29;20464;-76
2021/10/08 03:50:56;;;;;;;5.93;5.40;;;;;;;10.39;79.22;101518.09;4853344;29;20430;-77
2021/10/08 03:53:21;;;;;;;6.03;5.47;;;;;;;10.41;79.02;101526.00;4856946;29;20430;-77
2021/10/08 03:55:47;;;;;;;12.50;6.27;;;;;;;10.38;79.52;101523.72;4841032;29;20448;-76
2021/10/08 03:58:12;;;;;;;9.43;5.80;;;;;;;10.39;79.31;101522.69;4857237;29;20422;-76
2021/10/08 04:00:37;;;;;;;5.73;5.13;;;;;;;10.39;79.04;101530.81;4841579;29;20430;-77
2021/10/08 04:03:03;;;;;;;5.87;5.27;;;;;;;10.39;78.97;101530.81;4858335;29;20894;-76
2021/10/08 04:05:28;;;;;;;8.17;5.40;;;;;;;10.38;78.82;101523.72;4844751;29;20422;-76
2021/10/08 04:07:53;;;;;;;7.60;5.30;;;;;;;10.37;78.90;101519.38;4842170;29;20790;-77
2021/10/08 04:10:18;;;;;;;8.00;5.37;;;;;;;10.34;79.31;101528.75;4858657;29;20446;-76
2021/10/08 04:12:44;;;;;;;7.03;4.90;;;;;;;10.34;78.82;101526.03;4858476;29;20791;-76
2021/10/08 04:15:09;;;;;;;5.40;4.50;;;;;;;10.34;78.67;101534.16;4859115;29;20510;-76
2021/10/08 04:17:34;;;;;;;6.00;4.97;;;;;;;10.29;78.61;101534.00;4856458;29;20418;-76
2021/10/08 04:19:59;;;;;;;7.00;4.40;;;;;;;10.29;78.64;101535.88;4841886;29;20438;-76
2021/10/08 04:22:25;;;;;;;5.03;4.20;;;;;;;10.26;78.29;101525.47;4841510;29;20422;-76
2021/10/08 04:24:50;;;;;;;4.50;4.10;;;;;;;10.20;78.85;101529.88;4859161;29;20974;-76
2021/10/08 04:27:15;;;;;;;4.97;4.13;;;;;;;10.17;78.71;101535.72;4857984;29;20429;-77
2021/10/08 04:29:41;;;;;;;4.70;4.40;;;;;;;10.17;78.61;101537.59;4857442;29;20422;-78
2021/10/08 04:32:07;;;;;;;4.13;3.83;;;;;;;10.15;78.71;101528.84;4858320;29;20433;-76
2021/10/08 04:34:32;;;;;;;4.32;3.92;;;;;;;10.21;78.34;101530.69;4857549;29;20422;-77
2021/10/08 04:36:57;;;;;;;4.63;4.10;;;;;;;10.17;78.25;101530.31;4857643;29;20599;-77
2021/10/08 04:39:23;;;;;;;4.07;3.77;;;;;;;10.15;78.72;101531.56;4856041;29;20889;-77
2021/10/08 04:41:48;;;;;;;5.27;4.20;;;;;;;10.23;78.70;101526.75;4858289;29;20406;-76
2021/10/08 04:44:13;;;;;;;4.15;3.72;;;;;;;10.27;78.26;101537.97;4857053;29;20939;-76
2021/10/08 04:46:39;;;;;;;6.20;4.40;;;;;;;10.29;78.22;101530.44;4851983;29;20778;-76
2021/10/08 04:49:04;;;;;;;7.70;4.50;;;;;;;10.32;78.22;101527.31;4856887;29;20445;-77
2021/10/08 04:51:29;;;;;;;5.10;4.40;;;;;;;10.29;78.10;101535.88;4851025;29;20421;-77
2021/10/08 04:53:54;;;;;;;4.80;4.30;;;;;;;10.25;78.53;101532.75;4858707;29;20564;-77
2021/10/08 04:56:20;;;;;;;4.57;4.17;;;;;;;10.27;78.31;101524.44;4859690;29;20434;-76
2021/10/08 04:58:45;;;;;;;4.67;4.17;;;;;;;10.30;78.38;101530.25;4856532;29;20916;-77
2021/10/08 05:01:10;;;;;;;4.83;4.23;;;;;;;10.34;78.25;101533.34;4859540;29;20442;-77
2021/10/08 05:03:35;;;;;;;6.07;4.07;;;;;;;10.34;77.87;101526.03;4837119;29;20966;-77
2021/10/08 05:06:01;;;;;;;5.17;3.83;;;;;;;10.37;77.98;101524.78;4838620;29;20437;-77
2021/10/08 05:08:26;;;;;;;5.57;4.23;;;;;;;10.38;77.81;101529.13;4860570;29;20433;-78
2021/10/08 05:10:52;;;;;;;4.63;4.23;;;;;;;10.33;77.92;101526.25;4844760;29;20425;-77
2021/10/08 05:13:17;;;;;;;6.45;4.80;;;;;;;10.32;77.48;101535.44;4858742;29;20794;-77
2021/10/08 05:15:43;;;;;;;5.83;4.00;;;;;;;10.29;78.19;101528.56;4859915;29;20513;-77
2021/10/08 05:18:08;;;;;;;5.95;4.50;;;;;;;10.30;78.21;101529.41;4853698;29;20430;-77
2021/10/08 05:20:33;;;;;;;5.37;4.67;;;;;;;10.32;77.96;101530.84;4856322;29;20430;-77
2021/10/08 05:22:59;;;;;;;6.05;5.32;;;;;;;10.32;77.85;101532.72;4834799;29;20414;-77
2021/10/08 05:25:24;;;;;;;6.87;5.27;;;;;;;10.33;77.87;101531.69;4842649;29;20427;-76
2021/10/08 05:27:50;;;;;;;8.23;5.70;;;;;;;10.31;77.72;101537.31;4855653;29;20918;-76
2021/10/08 05:30:15;;;;;;;8.70;6.57;;;;;;;10.31;78.04;101536.47;4861224;29;20452;-77
2021/10/08 05:32:41;;;;;;;7.33;5.97;;;;;;;10.29;78.17;101536.69;4839727;29;20433;-76
2021/10/08 05:35:09;;;;;;;9.07;5.87;;;;;;;10.21;78.17;101534.22;4840981;29;20434;-77
2021/10/08 05:37:34;;;;;;;31.95;20.80;;;;;;;10.21;78.03;101545.06;4854240;29;20444;-77
2021/10/08 05:40:00;;;;;;;7.33;6.63;;;;;;;10.22;78.26;101544.03;4858623;29;20426;-76
2021/10/08 05:42:25;;;;;;;10.23;6.13;;;;;;;10.23;78.24;101534.88;4853403;29;20450;-77
2021/10/08 05:44:51;;;;;;;6.70;6.03;;;;;;;10.24;78.18;101535.69;4856114;29;20885;-77
2021/10/08 05:47:16;;;;;;;6.33;5.70;;;;;;;10.22;78.29;101543.19;4856793;29;20436;-76
2021/10/08 05:49:41;;;;;;;6.47;5.80;;;;;;;10.21;78.18;101536.94;4856694;29;20921;-77
2021/10/08 05:52:07;;;;;;;7.03;6.00;;;;;;;10.17;78.14;101543.84;4840827;29;20445;-76
2021/10/08 05:54:32;;;;;;;8.27;6.80;;;;;;;10.13;78.20;101548.00;4860882;29;20492;-76
2021/10/08 05:56:57;;;;;;;8.97;5.93;;;;;;;10.16;78.43;101552.19;4857998;29;20813;-76
2021/10/08 05:59:23;;;;;;;6.25;5.75;;;;;;;10.22;78.38;101551.31;4849835;29;20504;-76
2021/10/08 06:01:48;;;;;;;9.67;5.73;;;;;;;10.25;78.34;101548.19;4857397;29;20466;-76
2021/10/08 06:04:13;;;;;;;7.67;5.87;;;;;;;10.24;78.39;101544.63;4853873;29;20438;-76
2021/10/08 06:06:38;;;;;;;7.07;6.37;;;;;;;10.27;78.05;101548.81;4857218;29;20907;-76
2021/10/08 06:09:04;;;;;;;7.90;6.37;;;;;;;10.29;78.14;101552.97;4859906;29;20511;-76
2021/10/08 06:11:32;;;;;;;7.40;5.93;;;;;;;10.30;78.22;101551.91;4860226;29;20406;-76
2021/10/08 06:13:57;;;;;;;6.68;6.15;;;;;;;10.31;78.32;101547.31;4859643;29;20482;-76
2021/10/08 06:16:23;;;;;;;7.43;6.07;;;;;;;10.30;78.06;101551.09;4855590;29;20438;-76
2021/10/08 06:18:48;;;;;;;8.45;6.43;;;;;;;10.31;78.13;101550.84;4856809;29;20458;-76
2021/10/08 06:21:13;;;;;;;9.40;6.60;;;;;;;10.34;77.79;101555.84;4855868;29;22578;-77
2021/10/08 06:23:39;;;;;;;6.70;6.10;;;;;;;10.38;77.96;101556.22;4857839;29;20437;-76
2021/10/08 06:26:15;;;;;;;8.30;6.30;;;;;;;10.39;78.08;101555.19;4855981;29;20433;-76
2021/10/08 06:28:40;;;;;;;6.63;6.05;;;;;;;10.39;78.17;101556.03;4858157;29;20524;-76
2021/10/08 06:31:05;;;;;;;7.23;6.43;;;;;;;10.43;78.24;101555.59;4851800;29;20510;-77
2021/10/08 06:33:31;;;;;;;6.57;5.97;;;;;;;10.46;78.19;101556.00;4857470;29;20430;-76
2021/10/08 06:35:56;;;;;;;9.97;7.10;;;;;;;10.48;78.38;101555.75;4857656;29;20432;-76
2021/10/08 06:38:21;;;;;;;10.87;7.37;;;;;;;10.52;78.56;101563.25;4825792;29;20427;-76
2021/10/08 06:40:46;;;;;;;7.03;6.33;;;;;;;10.54;78.38;101553.00;4847873;29;20849;-77
2021/10/08 06:43:13;;;;;;;7.53;6.73;;;;;;;10.57;78.50;101555.28;4850589;29;20449;-76
2021/10/08 06:45:38;;;;;;;8.02;7.22;;;;;;;10.58;78.47;101565.09;4851172;29;20465;-76
2021/10/08 06:48:04;;;;;;;7.63;6.30;;;;;;;10.63;78.34;101559.03;4850257;29;20942;-76
2021/10/08 06:50:29;;;;;;;13.02;7.53;;;;;;;10.63;78.23;101562.56;4848316;29;20435;-76
2021/10/08 06:52:55;;;;;;;8.33;7.33;;;;;;;10.66;78.59;101561.28;4858417;29;20465;-76
2021/10/08 06:55:21;;;;;;;10.73;6.90;;;;;;;10.68;78.16;101556.47;4839800;29;20828;-77
2021/10/08 06:57:46;;;;;;;7.40;6.43;;;;;;;10.72;78.11;101557.69;4855130;29;20422;-77
2021/10/08 07:00:12;;;;;;;9.73;7.10;;;;;;;10.77;78.31;101564.13;4851597;29;20420;-76
2021/10/08 07:02:48;;;;;;;6.85;6.28;;;;;;;10.82;78.25;101555.34;4853565;29;20902;-77
2021/10/08 07:05:13;;;;;;;10.45;8.05;;;;;;;10.91;77.99;101554.00;4856565;29;20461;-76
2021/10/08 07:07:38;;;;;;;9.63;6.70;;;;;;;10.93;77.92;101552.72;4854721;29;20446;-76
2021/10/08 07:10:04;;;;;;;7.80;7.07;;;;;;;11.00;77.66;101554.59;4848108;29;20524;-77
2021/10/08 07:12:29;;;;;;;9.00;6.80;;;;;;;11.08;77.71;101559.72;4851409;29;20447;-76
2021/10/08 07:14:55;;;;;;;9.43;7.43;;;;;;;11.08;77.54;101557.84;4852366;29;20436;-76
2021/10/08 07:17:23;;;;;;;10.67;7.63;;;;;;;11.12;77.05;101560.94;4852544;29;20782;-76
2021/10/08 07:19:55;;;;;;;9.93;7.72;;;;;;;11.16;77.12;101560.28;4842227;29;20928;-77
2021/10/08 07:22:20;;;;;;;8.93;7.50;;;;;;;11.21;77.02;101560.44;4833496;29;20418;-76
2021/10/08 07:24:48;;;;;;;9.00;8.10;;;;;;;11.24;76.93;101549.13;4854695;29;20892;-76
2021/10/08 07:27:15;;;;;;;7.93;7.20;;;;;;;11.23;76.93;101557.53;4851196;29;20513;-76
2021/10/08 07:29:40;;;;;;;10.77;6.18;;;;;;;11.17;77.01;101553.78;4850693;29;20493;-76
2021/10/08 07:32:06;;;;;;;7.83;6.67;;;;;;;11.19;77.01;101559.84;4850069;29;20430;-77
2021/10/08 07:34:31;;;;;;;8.70;6.78;;;;;;;11.19;77.03;101549.00;4847218;29;20436;-76
2021/10/08 07:36:56;;;;;;;10.63;6.85;;;;;;;11.22;77.18;101553.13;4850715;29;20426;-76
2021/10/08 07:39:21;;;;;;;9.83;6.73;;;;;;;11.25;76.67;101556.25;4851910;29;20419;-76
2021/10/08 07:41:47;;;;;;;8.40;6.88;;;;;;;11.27;76.68;101553.28;4848434;29;20433;-77
2021/10/08 07:44:12;;;;;;;9.17;7.13;;;;;;;11.30;76.60;101555.53;4847486;29;21057;-77
2021/10/08 07:46:37;;;;;;;10.57;6.93;;;;;;;11.33;76.56;101555.94;4849637;29;20460;-77
2021/10/08 07:49:03;;;;;;;8.40;7.00;;;;;;;11.38;76.59;101561.53;4853474;29;20462;-76
2021/10/08 07:51:30;;;;;;;9.45;6.75;;;;;;;11.40;76.53;101564.00;4851736;29;20432;-76
2021/10/08 07:53:55;;;;;;;8.38;6.60;;;;;;;11.44;76.51;101568.78;4845852;29;20463;-76
2021/10/08 07:56:20;;;;;;;8.37;6.60;;;;;;;11.44;76.36;101560.63;4840591;29;20810;-76
2021/10/08 07:58:46;;;;;;;9.13;6.83;;;;;;;11.48;76.33;101561.03;4835987;29;20960;-76
2021/10/08 08:01:11;;;;;;;8.67;6.10;;;;;;;11.51;76.31;101559.75;4851213;29;21014;-76
2021/10/08 08:03:36;;;;;;;9.40;6.33;;;;;;;11.53;76.33;101555.75;4837305;29;20441;-76
2021/10/08 08:06:02;;;;;;;9.95;6.30;;;;;;;11.54;76.27;101557.41;4852119;29;21173;-76
2021/10/08 08:08:27;;;;;;;8.77;6.30;;;;;;;11.59;76.36;101564.91;4849807;29;20414;-76
2021/10/08 08:10:52;;;;;;;7.43;6.43;;;;;;;11.62;76.24;101562.56;4847533;29;20507;-76
2021/10/08 08:13:18;;;;;;;7.37;6.20;;;;;;;11.69;76.37;101557.06;4849229;29;20769;-76
2021/10/08 08:15:43;;;;;;;16.35;6.70;;;;;;;11.72;75.89;101556.63;4849515;29;20434;-76
2021/10/08 08:18:09;;;;;;;21.43;7.90;;;;;;;11.75;75.98;101550.75;4849800;29;20434;-76
2021/10/08 08:20:34;;;;;;;15.40;6.70;;;;;;;11.80;76.02;101553.59;4848035;29;20506;-76
2021/10/08 08:23:00;;;;;;;10.55;6.28;;;;;;;11.86;76.07;101555.41;4851045;29;20570;-77
2021/10/08 08:25:25;;;;;;;8.13;6.20;;;;;;;11.88;76.02;101553.31;4854078;29;20461;-76
2021/10/08 08:27:50;;;;;;;7.30;5.73;;;;;;;11.93;75.57;101550.72;4855695;29;20819;-76
2021/10/08 08:30:16;;;;;;;7.43;5.50;;;;;;;11.95;75.46;101556.78;4852195;29;20492;-76
2021/10/08 08:32:41;;;;;;;6.30;5.32;;;;;;;12.03;75.20;101551.03;4831703;29;20929;-76
2021/10/08 08:35:08;;;;;;;7.60;5.40;;;;;;;12.12;75.12;101548.84;4844716;29;20424;-76
2021/10/08 08:37:34;;;;;;;8.07;5.95;;;;;;;12.15;74.86;101549.19;4833719;29;20427;-76
2021/10/08 08:40:02;;;;;;;6.73;5.07;;;;;;;12.20;74.95;101545.81;4850090;29;20516;-76
2021/10/08 08:42:27;;;;;;;8.73;5.32;;;;;;;12.32;74.40;101555.66;4847865;29;20424;-76
2021/10/08 08:44:53;;;;;;;15.47;5.93;;;;;;;12.40;74.31;101558.06;4847454;29;20436;-76
2021/10/08 08:47:20;;;;;;;6.77;4.80;;;;;;;12.47;73.97;101553.38;4852047;29;20457;-76
2021/10/08 08:49:46;;;;;;;11.17;5.87;;;;;;;12.45;74.07;101551.94;4847446;29;20505;-76
2021/10/08 08:52:12;;;;;;;11.00;5.05;;;;;;;12.46;73.96;101551.72;4842112;29;20428;-76
2021/10/08 08:54:39;;;;;;;10.90;5.78;;;;;;;12.54;73.76;101544.28;4852206;29;20455;-76
2021/10/08 08:57:16;;;;;;;7.63;4.50;;;;;;;12.55;73.80;101538.59;4850468;29;20977;-76
2021/10/08 09:00:03;;;;;;;5.53;4.93;;;;;;;12.53;73.64;101542.63;4848020;29;20435;-76
2021/10/08 09:02:30;;;;;;;8.30;4.93;;;;;;;12.57;73.79;101535.66;4851017;29;20418;-76
2021/10/08 09:04:56;;;;;;;7.53;5.10;;;;;;;12.80;73.10;101533.00;4848553;29;20421;-76
2021/10/08 09:07:22;;;;;;;8.57;4.90;;;;;;;13.10;71.87;101538.41;4848409;29;20452;-76
2021/10/08 09:09:48;;;;;;;6.35;4.78;;;;;;;12.97;72.35;101532.09;4848164;29;20428;-76
2021/10/08 09:12:14;;;;;;;7.53;5.22;;;;;;;12.89;72.84;101529.72;4847081;29;20436;-76
2021/10/08 09:14:39;;;;;;;7.80;5.47;;;;;;;12.90;72.93;101531.38;4852702;29;20557;-76
2021/10/08 09:17:16;;;;;;;17.15;5.88;;;;;;;12.94;72.91;101527.09;4859034;29;20917;-75
2021/10/08 09:19:58;;;;;;;6.68;4.78;;;;;;;13.05;72.29;101528.19;4836022;29;21082;-76
2021/10/08 09:22:30;;;;;;;9.63;5.63;;;;;;;13.12;72.58;101525.41;4838294;29;20459;-76
2021/10/08 09:25:15;;;;;;;6.28;5.32;;;;;;;13.20;71.81;101523.16;4857236;29;20450;-76
2021/10/08 09:27:42;;;;;;;6.53;5.50;;;;;;;13.32;71.46;101523.97;4848966;29;20426;-76
2021/10/08 09:30:09;;;;;;;6.57;4.80;;;;;;;13.45;71.41;101523.75;4850246;29;20444;-76
2021/10/08 09:32:48;;;;;;;6.03;5.45;;;;;;;13.49;71.01;101522.22;4855452;29;20432;-76
2021/10/08 09:35:19;;;;;;;12.07;5.50;;;;;;;13.50;70.35;101520.31;4849800;29;20428;-76
2021/10/08 09:38:00;;;;;;;5.50;4.55;;;;;;;13.57;70.83;101529.16;4839025;29;20786;-77
2021/10/08 09:40:28;;;;;;;7.90;4.55;;;;;;;13.67;70.87;101534.00;4858257;29;20426;-77
2021/10/08 09:42:56;;;;;;;6.72;4.82;;;;;;;13.75;70.60;101530.94;4853110;29;20439;-77
2021/10/08 09:45:35;;;;;;;7.27;5.33;;;;;;;13.98;70.28;101528.16;4855889;29;20433;-77
2021/10/08 09:48:00;;;;;;;5.35;4.35;;;;;;;14.29;69.03;101529.59;4855780;29;21082;-77
2021/10/08 09:50:26;;;;;;;7.90;5.00;;;;;;;14.40;68.75;101535.00;4858006;29;20426;-76
2021/10/08 09:53:08;;;;;;;5.23;4.73;;;;;;;14.46;68.51;101531.31;4857918;29;20426;-76
2021/10/08 09:55:33;;;;;;;30.20;6.90;;;;;;;14.51;67.88;101531.41;4854451;29;20461;-76
2021/10/08 09:57:58;;;;;;;6.80;4.55;;;;;;;14.60;67.90;101531.00;4857247;29;20460;-76
2021/10/08 10:00:36;;;;;;;4.77;4.20;;;;;;;14.88;67.66;101522.78;4851359;29;20429;-76
2021/10/08 10:03:03;;;;;;;4.78;4.35;;;;;;;15.17;67.29;101523.53;4857632;29;20569;-77
2021/10/08 10:05:29;;;;;;;5.13;3.95;;;;;;;15.28;66.41;101523.41;4834607;29;20511;-76
2021/10/08 10:07:55;;;;;;;13.50;4.80;;;;;;;15.33;65.95;101523.50;4850654;29;20515;-76
2021/10/08 10:10:24;;;;;;;7.25;4.63;;;;;;;15.21;66.10;101521.94;4851121;29;20430;-77
2021/10/08 10:12:50;;;;;;;4.80;4.40;;;;;;;15.09;66.28;101519.28;4853013;29;20438;-76
2021/10/08 10:15:16;;;;;;;5.90;4.30;;;;;;;15.36;65.79;101520.28;4855396;29;20790;-76
2021/10/08 10:17:42;;;;;;;4.13;3.75;;;;;;;15.51;65.45;101519.72;4856775;29;20418;-76
2021/10/08 10:20:10;;;;;;;5.47;4.32;;;;;;;15.46;65.64;101514.13;4851077;29;20932;-76
2021/10/08 10:22:36;;;;;;;8.37;3.97;;;;;;;15.38;65.97;101518.09;4851842;29;20468;-76
2021/10/08 10:25:03;;;;;;;5.80;4.07;;;;;;;15.27;66.01;101510.84;4841996;29;20593;-76
2021/10/08 10:27:28;;;;;;;5.38;3.70;;;;;;;15.24;66.34;101524.19;4851359;29;20422;-76
2021/10/08 10:29:55;;;;;;;5.03;4.07;;;;;;;15.21;66.49;101524.69;4840941;29;20953;-76
2021/10/08 10:32:21;;;;;;;5.68;4.28;;;;;;;15.37;65.98;101515.63;4856046;29;21129;-76
2021/10/08 10:34:48;;;;;;;6.55;4.00;;;;;;;15.61;65.24;101519.03;4851177;29;20427;-78
2021/10/08 10:37:38;;;;;;;4.90;3.80;;;;;;;15.73;65.19;101522.44;4850713;29;20418;-76
2021/10/08 10:40:21;;;;;;;4.27;3.60;;;;;;;15.82;65.01;101516.28;4856413;29;20471;-76
2021/10/08 10:43:18;;;;;;;6.07;3.85;;;;;;;15.81;65.09;101519.25;4845948;29;20471;-76
2021/10/08 10:46:19;;;;;;;7.53;4.30;;;;;;;15.84;64.81;101516.84;4849963;29;20825;-77
2021/10/08 10:49:17;;;;;;;6.72;4.25;;;;;;;15.74;64.61;101516.72;4850797;29;20431;-76
2021/10/08 10:51:55;;;;;;;9.13;4.63;;;;;;;15.63;64.66;101520.41;4848273;29;20429;-76
2021/10/08 10:54:41;;;;;;;7.80;4.45;;;;;;;15.50;65.20;101516.16;4847624;29;20790;-77
2021/10/08 10:57:35;;;;;;;4.78;3.85;;;;;;;15.45;65.63;101524.22;4828483;29;20430;-76
2021/10/08 11:00:20;;;;;;;4.45;3.63;;;;;;;15.42;66.03;101511.06;4847549;29;20427;-77
2021/10/08 11:02:46;;;;;;;5.50;4.03;;;;;;;15.44;66.30;101510.81;4849724;29;20419;-76
2021/10/08 11:05:21;;;;;;;6.73;3.93;;;;;;;15.48;66.57;101510.09;4854950;29;20438;-76
2021/10/08 11:08:06;;;;;;;10.75;4.93;;;;;;;15.54;65.70;101508.28;4847971;29;20454;-76
2021/10/08 11:10:32;;;;;;;10.63;4.75;;;;;;;15.48;65.35;101517.44;4855406;29;20933;-76
2021/10/08 11:13:29;;;;;;;9.40;4.53;;;;;;;15.41;65.92;101505.88;4850564;29;20914;-77
2021/10/08 11:15:56;;;;;;;5.47;4.97;;;;;;;15.44;66.20;101511.63;4848684;29;20426;-76
2021/10/08 11:18:54;;;;;;;7.47;4.50;;;;;;;15.44;66.25;101499.91;4844612;29;20445;-76
2021/10/08 11:21:25;;;;;;;129.25;13.50;;;;;;;15.43;66.34;101510.00;4807163;29;20486;-76
2021/10/08 11:23:51;;;;;;;7.25;4.93;;;;;;;15.40;66.48;101502.31;4853485;29;20474;-76
2021/10/08 11:26:16;;;;;;;8.50;4.40;;;;;;;15.39;66.35;101495.19;4852018;29;20457;-77
2021/10/08 11:28:45;;;;;;;11.20;5.13;;;;;;;15.44;66.46;101505.38;4839443;29;20513;-75